Maersk Bulan — 9V7693 — position and weather

sailwx.info

Track history (hours):
 
Tides and Currents Weather Stations Pressure Air Temp Water Temp Dewpoint Dewpoint Depression Visibility Wind Speed Wind Dir Waves Ship Positions

Maersk Bulan

Last reported at 2015-May-30 07:32 UTC. Time now 2015-May-30 08:20 UTC.
Position N 36°38' E 013°39'.

Length 223 m; draft 9.1 m.

Type: Ship (hazmat cat A). MMSI: 563455000.

Date/timePositionNaut miles runAvg speedWind from/ knotsBaromVisibWave heightAir tempDewpointWater temp
2015-May-30 07:32N 36°38' E 013°39'1616.5
2015-May-30 06:34N 36°34' E 013°58'1515.4
2015-May-30 05:33N 36°30' E 014°17'1615.6
2015-May-30 04:33N 36°25' E 014°35'1615.7
2015-May-30 03:33N 36°21' E 014°54'1515.4
2015-May-30 02:33N 36°22' E 015°13'1816.0
2015-May-30 01:26N 36°20' E 015°36'1516.3
2015-May-30 00:32N 36°20' E 015°54'1616.2
2015-May-29 23:33N 36°20' E 016°14'  
2015-May-26 04:18N 40°46' E 029°40'911.9
2015-May-26 03:33N 40°45' E 029°29'9 9.0
2015-May-26 02:32N 40°43' E 029°17'1111.3
2015-May-26 01:33N 40°45' E 029°02'9 8.8
2015-May-26 00:32N 40°48' E 028°51'1 0.6
2015-May-25 23:33N 40°47' E 028°51'1 0.6
2015-May-25 22:33N 40°47' E 028°50'0 0.3
2015-May-25 21:28N 40°47' E 028°50'7 7.5
2015-May-25 20:32N 40°50' E 028°42'8 3.4
2015-May-25 18:19N 40°58' E 028°41'0 0.0
2015-May-25 17:33N 40°58' E 028°41'0 0.0
2015-May-25 16:33N 40°58' E 028°41'0 0.0
2015-May-25 08:17N 40°58' E 028°41'0 0.0
2015-May-25 05:30N 40°58' E 028°41'0 0.0
2015-May-25 04:26N 40°58' E 028°41'3 2.4
2015-May-25 03:24N 40°56' E 028°42'8 8.6
2015-May-25 02:30N 40°55' E 028°53'30211.1
2015-May-23 23:16N 43°27' E 034°45'1212.0
2015-May-23 22:17N 43°33' E 034°59'3312.0
2015-May-23 19:33N 43°48' E 035°39'3812.1
2015-May-23 16:26N 44°05' E 036°27'1112.7
2015-May-23 15:33N 44°10' E 036°40'2512.7
2015-May-23 13:33N 44°21' E 037°12'1211.9
2015-May-23 12:33N 44°27' E 037°27'1211.8
2015-May-23 11:33N 44°32' E 037°42'1010.0
2015-May-23 10:33N 44°40' E 037°50'4 3.5
2015-May-23 09:31N 44°43' E 037°49'0 0.0
2015-May-23 08:31N 44°43' E 037°49'0 0.0
2015-May-23 07:31N 44°43' E 037°49'0 0.0
2015-May-23 06:31N 44°43' E 037°49'0 0.0
2015-May-23 05:31N 44°43' E 037°49'0 0.0
2015-May-23 04:31N 44°43' E 037°49'0 0.0
2015-May-23 03:31N 44°43' E 037°49'0 0.0
2015-May-23 02:31N 44°43' E 037°49'0 0.0
2015-May-23 01:31N 44°43' E 037°49'0 0.0
2015-May-23 00:31N 44°43' E 037°49'0 0.0
2015-May-22 23:31N 44°43' E 037°49'0 0.0
2015-May-22 22:31N 44°43' E 037°49'0 0.0
2015-May-22 21:31N 44°43' E 037°49'0 0.0
2015-May-22 20:25N 44°43' E 037°49'0 0.0
2015-May-22 19:31N 44°43' E 037°49'0 0.0
2015-May-22 18:28N 44°43' E 037°49'0 0.0
2015-May-22 17:31N 44°43' E 037°49'0 0.0
2015-May-22 16:31N 44°43' E 037°49'0 0.0
2015-May-22 15:31N 44°43' E 037°49'0 0.0
2015-May-22 12:10N 44°43' E 037°49'0 0.0
2015-May-22 11:31N 44°43' E 037°49'0 0.0
2015-May-22 10:32N 44°43' E 037°49'2 2.0
2015-May-22 09:34N 44°41' E 037°49'5 5.1
2015-May-22 08:33N 44°37' E 037°51'2 1.8
2015-May-22 07:34N 44°35' E 037°51'5 5.5
2015-May-22 06:34N 44°30' E 037°47'1313.2
2015-May-22 05:33N 44°21' E 037°33'1 0.6
2015-May-22 04:33N 44°22' E 037°34'1 1.0
2015-May-22 03:33N 44°23' E 037°34'1 1.2
2015-May-22 02:33N 44°23' E 037°36'5 0.5
2015-May-21 17:24N 44°19' E 037°38'1 1.2
2015-May-21 16:32N 44°19' E 037°39'1 1.1
2015-May-21 15:33N 44°20' E 037°41'1 1.0
2015-May-21 14:33N 44°21' E 037°42'1 0.5
2015-May-21 13:32N 44°21' E 037°42'1 0.5
2015-May-21 12:33N 44°21' E 037°43'1 0.8
2015-May-21 11:33N 44°22' E 037°43'1 0.5
2015-May-21 10:33N 44°22' E 037°44'0 0.4
2015-May-21 09:33N 44°23' E 037°44'0 0.3
2015-May-21 08:33N 44°23' E 037°44'0 0.1
2015-May-21 07:33N 44°23' E 037°44'5 4.7
2015-May-21 06:33N 44°19' E 037°40'2 2.4
2015-May-21 05:33N 44°17' E 037°38'0 0.1
2015-May-21 04:33N 44°17' E 037°38'0 0.2
2015-May-21 03:32N 44°18' E 037°38'0 0.3
2015-May-21 02:33N 44°18' E 037°38'0 0.4
2015-May-21 01:33N 44°18' E 037°39'0 0.3
2015-May-21 00:32N 44°18' E 037°39'0 0.5
2015-May-20 23:31N 44°18' E 037°40'1 0.7
2015-May-20 22:33N 44°19' E 037°41'1 1.1
2015-May-20 21:33N 44°19' E 037°42'1 1.2
2015-May-20 20:33N 44°20' E 037°43'1 1.3
2015-May-20 19:32N 44°21' E 037°44'2 1.5
2015-May-20 18:33N 44°23' E 037°45'1 1.4
2015-May-20 17:33N 44°24' E 037°46'1 0.8
2015-May-20 16:33N 44°25' E 037°46'0 0.5
2015-May-20 15:33N 44°25' E 037°46'0 0.5
2015-May-20 14:33N 44°26' E 037°46'0 0.1
2015-May-20 13:33N 44°26' E 037°46'2 1.6
2015-May-20 12:33N 44°24' E 037°46'5 5.0
2015-May-20 11:33N 44°20' E 037°43'0 0.2
2015-May-20 10:33N 44°20' E 037°43'0 0.4
2015-May-20 09:33N 44°20' E 037°44'1 0.8
2015-May-20 08:33N 44°20' E 037°45'1 1.2
2015-May-20 07:33N 44°21' E 037°46'  
Track history (hours):
 
Tides and Currents Weather Stations Pressure Air Temp Water Temp Dewpoint Dewpoint Depression Visibility Wind Speed Wind Dir Waves Ship Positions

Maersk Bulan

Last reported at 2015-May-30 07:32 UTC. Time now 2015-May-30 08:20 UTC.
Position N 36°38' E 013°39'.

Length 223 m; draft 9.1 m.

Type: Ship (hazmat cat A). MMSI: 563455000.

Date/timePositionNaut miles runAvg speedWind from/ knotsBaromVisibWave heightAir tempDewpointWater temp
2015-May-30 07:32N 36°38' E 013°39'1616.5
2015-May-30 06:34N 36°34' E 013°58'1515.4
2015-May-30 05:33N 36°30' E 014°17'1615.6
2015-May-30 04:33N 36°25' E 014°35'1615.7
2015-May-30 03:33N 36°21' E 014°54'1515.4
2015-May-30 02:33N 36°22' E 015°13'1816.0
2015-May-30 01:26N 36°20' E 015°36'1516.3
2015-May-30 00:32N 36°20' E 015°54'1616.2
2015-May-29 23:33N 36°20' E 016°14'  
2015-May-26 04:18N 40°46' E 029°40'911.9
2015-May-26 03:33N 40°45' E 029°29'9 9.0
2015-May-26 02:32N 40°43' E 029°17'1111.3
2015-May-26 01:33N 40°45' E 029°02'9 8.8
2015-May-26 00:32N 40°48' E 028°51'1 0.6
2015-May-25 23:33N 40°47' E 028°51'1 0.6
2015-May-25 22:33N 40°47' E 028°50'0 0.3
2015-May-25 21:28N 40°47' E 028°50'7 7.5
2015-May-25 20:32N 40°50' E 028°42'8 3.4
2015-May-25 18:19N 40°58' E 028°41'0 0.0
2015-May-25 17:33N 40°58' E 028°41'0 0.0
2015-May-25 16:33N 40°58' E 028°41'0 0.0
2015-May-25 08:17N 40°58' E 028°41'0 0.0
2015-May-25 05:30N 40°58' E 028°41'0 0.0
2015-May-25 04:26N 40°58' E 028°41'3 2.4
2015-May-25 03:24N 40°56' E 028°42'8 8.6
2015-May-25 02:30N 40°55' E 028°53'30211.1
2015-May-23 23:16N 43°27' E 034°45'1212.0
2015-May-23 22:17N 43°33' E 034°59'3312.0
2015-May-23 19:33N 43°48' E 035°39'3812.1
2015-May-23 16:26N 44°05' E 036°27'1112.7
2015-May-23 15:33N 44°10' E 036°40'2512.7
2015-May-23 13:33N 44°21' E 037°12'1211.9
2015-May-23 12:33N 44°27' E 037°27'1211.8
2015-May-23 11:33N 44°32' E 037°42'1010.0
2015-May-23 10:33N 44°40' E 037°50'4 3.5
2015-May-23 09:31N 44°43' E 037°49'0 0.0
2015-May-23 08:31N 44°43' E 037°49'0 0.0
2015-May-23 07:31N 44°43' E 037°49'0 0.0
2015-May-23 06:31N 44°43' E 037°49'0 0.0
2015-May-23 05:31N 44°43' E 037°49'0 0.0
2015-May-23 04:31N 44°43' E 037°49'0 0.0
2015-May-23 03:31N 44°43' E 037°49'0 0.0
2015-May-23 02:31N 44°43' E 037°49'0 0.0
2015-May-23 01:31N 44°43' E 037°49'0 0.0
2015-May-23 00:31N 44°43' E 037°49'0 0.0
2015-May-22 23:31N 44°43' E 037°49'0 0.0
2015-May-22 22:31N 44°43' E 037°49'0 0.0
2015-May-22 21:31N 44°43' E 037°49'0 0.0
2015-May-22 20:25N 44°43' E 037°49'0 0.0
2015-May-22 19:31N 44°43' E 037°49'0 0.0
2015-May-22 18:28N 44°43' E 037°49'0 0.0
2015-May-22 17:31N 44°43' E 037°49'0 0.0
2015-May-22 16:31N 44°43' E 037°49'0 0.0
2015-May-22 15:31N 44°43' E 037°49'0 0.0
2015-May-22 12:10N 44°43' E 037°49'0 0.0
2015-May-22 11:31N 44°43' E 037°49'0 0.0
2015-May-22 10:32N 44°43' E 037°49'2 2.0
2015-May-22 09:34N 44°41' E 037°49'5 5.1
2015-May-22 08:33N 44°37' E 037°51'2 1.8
2015-May-22 07:34N 44°35' E 037°51'5 5.5
2015-May-22 06:34N 44°30' E 037°47'1313.2
2015-May-22 05:33N 44°21' E 037°33'1 0.6
2015-May-22 04:33N 44°22' E 037°34'1 1.0
2015-May-22 03:33N 44°23' E 037°34'1 1.2
2015-May-22 02:33N 44°23' E 037°36'5 0.5
2015-May-21 17:24N 44°19' E 037°38'1 1.2
2015-May-21 16:32N 44°19' E 037°39'1 1.1
2015-May-21 15:33N 44°20' E 037°41'1 1.0
2015-May-21 14:33N 44°21' E 037°42'1 0.5
2015-May-21 13:32N 44°21' E 037°42'1 0.5
2015-May-21 12:33N 44°21' E 037°43'1 0.8
2015-May-21 11:33N 44°22' E 037°43'1 0.5
2015-May-21 10:33N 44°22' E 037°44'0 0.4
2015-May-21 09:33N 44°23' E 037°44'0 0.3
2015-May-21 08:33N 44°23' E 037°44'0 0.1
2015-May-21 07:33N 44°23' E 037°44'5 4.7
2015-May-21 06:33N 44°19' E 037°40'2 2.4
2015-May-21 05:33N 44°17' E 037°38'0 0.1
2015-May-21 04:33N 44°17' E 037°38'0 0.2
2015-May-21 03:32N 44°18' E 037°38'0 0.3
2015-May-21 02:33N 44°18' E 037°38'0 0.4
2015-May-21 01:33N 44°18' E 037°39'0 0.3
2015-May-21 00:32N 44°18' E 037°39'0 0.5
2015-May-20 23:31N 44°18' E 037°40'1 0.7
2015-May-20 22:33N 44°19' E 037°41'1 1.1
2015-May-20 21:33N 44°19' E 037°42'1 1.2
2015-May-20 20:33N 44°20' E 037°43'1 1.3
2015-May-20 19:32N 44°21' E 037°44'2 1.5
2015-May-20 18:33N 44°23' E 037°45'1 1.4
2015-May-20 17:33N 44°24' E 037°46'1 0.8
2015-May-20 16:33N 44°25' E 037°46'0 0.5
2015-May-20 15:33N 44°25' E 037°46'0 0.5
2015-May-20 14:33N 44°26' E 037°46'0 0.1
2015-May-20 13:33N 44°26' E 037°46'2 1.6
2015-May-20 12:33N 44°24' E 037°46'5 5.0
2015-May-20 11:33N 44°20' E 037°43'0 0.2
2015-May-20 10:33N 44°20' E 037°43'0 0.4
2015-May-20 09:33N 44°20' E 037°44'1 0.8
2015-May-20 08:33N 44°20' E 037°45'1 1.2
2015-May-20 07:33N 44°21' E 037°46'  

Dump ship's entire track history